| time (UTC) | temp F | wind direction | speed knots | gust knots | rain 1hr in | rain 24hr in | rain mn in | humidity % | barometer mb |
| 20260504160233 | 72 | 126 | 7.0 | 7.0 | 0.00 | 0.00 | 0.00 | 41 | 1017.9 |
| 20260504150658 | 69 | 226 | 2.6 | 4.3 | 0.00 | 0.00 | 0.00 | 46 | 1018.3 |
| 20260504150155 | 69 | 106 | 1.7 | 2.6 | 0.00 | 0.00 | 0.00 | 48 | 1018.2 |
| 20260504141124 | 61 | 195 | 2.6 | 3.5 | 0.00 | 0.00 | 0.00 | 58 | 1018.3 |
| 20260504140621 | 60 | 94 | 1.7 | 3.5 | 0.00 | 0.00 | 0.00 | 64 | 1018.5 |
| 20260504140117 | 59 | 100 | 1.7 | 2.6 | 0.00 | 0.00 | 0.00 | 73 | 1018.4 |
| 20260504130545 | 50 | 97 | 0.9 | 1.7 | 0.00 | 0.00 | 0.00 | 90 | 1018.4 |
| 20260504110432 | 42 | 95 | 0.9 | 1.7 | 0.00 | 0.00 | 0.00 | 96 | 1018.2 |
| 20260504100355 | 42 | 105 | 1.7 | 1.7 | 0.00 | 0.00 | 0.00 | 95 | 1017.8 |
| 20260504081748 | 44 | 76 | 0.0 | 1.7 | 0.00 | 0.00 | 0.00 | 92 | 1017.7 |
| 20260504081244 | 44 | 111 | 1.7 | 1.7 | 0.00 | 0.00 | 0.00 | 92 | 1017.9 |
| 20260504080741 | 44 | 77 | 0.9 | 1.7 | 0.00 | 0.00 | 0.00 | 92 | 1017.9 |
| 20260504080237 | 44 | 102 | 0.9 | 1.7 | 0.00 | 0.00 | 0.00 | 92 | 1017.7 |
| 20260504070205 | 45 | 101 | 1.7 | 1.7 | 0.00 | 0.00 | 0.00 | 89 | 1018.2 |
| 20260504060126 | 46 | 93 | 1.7 | 1.7 | 0.00 | 0.00 | 0.00 | 87 | 1018.3 |
| 20260504050554 | 48 | 106 | 1.7 | 1.7 | 0.00 | 0.00 | 0.00 | 82 | 1018.5 |
| 20260504045548 | 48 | 84 | 1.7 | 1.7 | 0.00 | 0.00 | 0.00 | 81 | 1018.3 |
| 20260504045043 | 48 | 91 | 1.7 | 1.7 | 0.00 | 0.00 | 0.00 | 80 | 1018.2 |
| 20260504044540 | 49 | 106 | 1.7 | 2.6 | 0.00 | 0.00 | 0.00 | 78 | 1018.2 |
| 20260504044037 | 49 | 95 | 0.9 | 0.9 | 0.00 | 0.00 | 0.00 | 78 | 1018.3 |
| 20260504043534 | 49 | 27 | 0.0 | 1.7 | 0.00 | 0.00 | 0.00 | 78 | 1018.3 |
| 20260504043032 | 49 | 49 | 0.0 | 1.7 | 0.00 | 0.00 | 0.00 | 78 | 1018.3 |
| 20260504042529 | 49 | 71 | 0.9 | 1.7 | 0.00 | 0.00 | 0.00 | 78 | 1018.4 |
| 20260504042026 | 49 | 91 | 1.7 | 1.7 | 0.00 | 0.00 | 0.00 | 78 | 1018.3 |
| 20260504041521 | 49 | 93 | 1.7 | 1.7 | 0.00 | 0.00 | 0.00 | 77 | 1018.4 |
| 20260504041017 | 49 | 102 | 0.0 | 0.9 | 0.00 | 0.00 | 0.00 | 77 | 1018.6 |
| 20260504040515 | 49 | 83 | 0.0 | 1.7 | 0.00 | 0.00 | 0.00 | 78 | 1018.5 |
| 20260504040012 | 49 | 98 | 1.7 | 1.7 | 0.00 | 0.00 | 0.00 | 79 | 1018.4 |
| 20260504035509 | 49 | 87 | 0.9 | 1.7 | 0.00 | 0.00 | 0.00 | 78 | 1018.4 |
| 20260504035005 | 50 | 100 | 0.9 | 1.7 | 0.00 | 0.00 | 0.00 | 77 | 1018.4 |
| 20260504034503 | 50 | 101 | 1.7 | 1.7 | 0.00 | 0.00 | 0.00 | 76 | 1018.4 |
| 20260504034000 | 50 | 111 | 1.7 | 1.7 | 0.00 | 0.00 | 0.00 | 74 | 1018.5 |
| 20260504033457 | 50 | 98 | 1.7 | 1.7 | 0.00 | 0.00 | 0.00 | 73 | 1018.6 |
| 20260504032955 | 51 | 93 | 1.7 | 1.7 | 0.00 | 0.00 | 0.00 | 72 | 1018.7 |
| 20260504032451 | 51 | 72 | 0.0 | 1.7 | 0.00 | 0.00 | 0.00 | 73 | 1018.7 |
| 20260504031948 | 51 | 41 | 0.9 | 1.7 | 0.00 | 0.00 | 0.00 | 73 | 1018.4 |
| 20260504031445 | 51 | 48 | 0.9 | 1.7 | 0.00 | 0.00 | 0.00 | 73 | 1018.5 |
| 20260504030941 | 51 | 81 | 0.9 | 1.7 | 0.00 | 0.00 | 0.00 | 72 | 1018.6 |
| 20260504030439 | 51 | 85 | 0.0 | 0.9 | 0.00 | 0.00 | 0.00 | 72 | 1018.5 |
| 20260504025934 | 51 | 33 | 1.7 | 1.7 | 0.00 | 0.00 | 0.00 | 71 | 1018.6 |
| 20260504025431 | 51 | 104 | 0.0 | 0.9 | 0.00 | 0.00 | 0.00 | 70 | 1018.4 |
| 20260504024929 | 51 | 42 | 0.9 | 1.7 | 0.00 | 0.00 | 0.00 | 71 | 1018.6 |
| 20260504024426 | 52 | 94 | 1.7 | 1.7 | 0.00 | 0.00 | 0.00 | 70 | 1018.7 |
| 20260504023922 | 52 | 92 | 1.7 | 1.7 | 0.00 | 0.00 | 0.00 | 69 | 1018.5 |
| 20260504023419 | 52 | 22 | 0.0 | 1.7 | 0.00 | 0.00 | 0.00 | 68 | 1018.5 |
| 20260504022914 | 53 | 117 | 0.9 | 1.7 | 0.00 | 0.00 | 0.00 | 66 | 1018.5 |
| 20260504022411 | 53 | 102 | 0.9 | 0.9 | 0.00 | 0.00 | 0.00 | 66 | 1018.4 |
| 20260504021908 | 53 | 49 | 1.7 | 1.7 | 0.00 | 0.00 | 0.00 | 65 | 1018.3 |
| 20260504021405 | 53 | 97 | 0.9 | 1.7 | 0.00 | 0.00 | 0.00 | 65 | 1018.2 |
| 20260504020903 | 54 | 56 | 0.0 | 1.7 | 0.00 | 0.00 | 0.00 | 65 | 1018.3 |
| 20260504020359 | 54 | 47 | 0.9 | 1.7 | 0.00 | 0.00 | 0.00 | 64 | 1018.1 |
| 20260504015855 | 54 | 71 | 0.0 | 0.9 | 0.00 | 0.00 | 0.00 | 62 | 1018.0 |
| 20260504015351 | 54 | 77 | 0.9 | 1.7 | 0.00 | 0.00 | 0.00 | 62 | 1018.0 |
| 20260504014847 | 55 | 47 | 0.0 | 1.7 | 0.00 | 0.00 | 0.00 | 61 | 1017.9 |
| 20260504014343 | 55 | 40 | 0.0 | 1.7 | 0.00 | 0.00 | 0.00 | 60 | 1017.8 |
| 20260504013841 | 55 | 93 | 0.0 | 0.9 | 0.00 | 0.00 | 0.00 | 60 | 1017.8 |
| 20260504013339 | 56 | 55 | 0.9 | 1.7 | 0.00 | 0.00 | 0.00 | 58 | 1017.5 |
| 20260504012835 | 56 | 60 | 0.9 | 1.7 | 0.00 | 0.00 | 0.00 | 57 | 1017.6 |
| 20260504012333 | 56 | 50 | 0.0 | 1.7 | 0.00 | 0.00 | 0.00 | 58 | 1017.5 |
| 20260504011831 | 56 | 39 | 1.7 | 1.7 | 0.00 | 0.00 | 0.00 | 56 | 1017.5 |
| 20260504011327 | 57 | 79 | 0.0 | 1.7 | 0.00 | 0.00 | 0.00 | 57 | 1017.7 |
| 20260504010823 | 57 | 37 | 0.0 | 0.9 | 0.00 | 0.00 | 0.00 | 56 | 1017.6 |
| 20260504010319 | 57 | 61 | 0.0 | 0.9 | 0.00 | 0.00 | 0.00 | 56 | 1017.5 |
| 20260504005815 | 57 | 64 | 0.0 | 1.7 | 0.00 | 0.00 | 0.00 | 55 | 1017.5 |
| 20260504005312 | 58 | 45 | 0.9 | 1.7 | 0.00 | 0.00 | 0.00 | 56 | 1017.5 |
| 20260504004810 | 58 | 34 | 0.9 | 1.7 | 0.00 | 0.00 | 0.00 | 56 | 1017.4 |
| 20260504004308 | 58 | 23 | 0.0 | 1.7 | 0.00 | 0.00 | 0.00 | 55 | 1017.2 |
| 20260504003803 | 59 | 57 | 0.0 | 0.9 | 0.00 | 0.00 | 0.00 | 53 | 1017.3 |
| 20260504003301 | 59 | 0 | 0.0 | 1.7 | 0.00 | 0.00 | 0.00 | 51 | 1017.1 |
| 20260504002757 | 60 | 55 | 0.0 | 1.7 | 0.00 | 0.00 | 0.00 | 52 | 1017.3 |
| 20260504002254 | 60 | 55 | 1.7 | 1.7 | 0.00 | 0.00 | 0.00 | 53 | 1017.2 |
| 20260504001752 | 60 | 55 | 0.9 | 1.7 | 0.00 | 0.00 | 0.00 | 53 | 1017.2 |
| 20260504001249 | 61 | 33 | 1.7 | 1.7 | 0.00 | 0.00 | 0.00 | 51 | 1017.1 |
| 20260504000746 | 61 | 9 | 0.9 | 1.7 | 0.00 | 0.00 | 0.00 | 52 | 1017.1 |
| 20260504000242 | 62 | 48 | 1.7 | 1.7 | 0.00 | 0.00 | 0.00 | 50 | 1017.0 |
| 20260503235741 | 62 | 57 | 1.7 | 2.6 | 0.00 | 0.00 | 0.00 | 48 | 1017.0 |
| 20260503235237 | 63 | 22 | 0.0 | 1.7 | 0.00 | 0.00 | 0.00 | 46 | 1016.9 |
| 20260503234735 | 63 | 29 | 0.9 | 1.7 | 0.00 | 0.00 | 0.00 | 47 | 1016.9 |
| 20260503234233 | 64 | 124 | 0.0 | 1.7 | 0.00 | 0.00 | 0.00 | 45 | 1016.9 |
| 20260503233730 | 64 | 143 | 0.0 | 1.7 | 0.00 | 0.00 | 0.00 | 48 | 1016.9 |
| 20260503233225 | 65 | 49 | 1.7 | 3.5 | 0.00 | 0.00 | 0.00 | 41 | 1017.0 |
| 20260503232723 | 65 | 63 | 1.7 | 1.7 | 0.00 | 0.00 | 0.00 | 45 | 1016.9 |
| 20260503232220 | 65 | 133 | 0.9 | 2.6 | 0.00 | 0.00 | 0.00 | 41 | 1017.0 |
| 20260503231718 | 65 | 60 | 2.6 | 2.6 | 0.00 | 0.00 | 0.00 | 44 | 1017.1 |
| 20260503231214 | 66 | 33 | 1.7 | 1.7 | 0.00 | 0.00 | 0.00 | 41 | 1017.1 |
| 20260503230711 | 66 | 111 | 0.0 | 2.6 | 0.00 | 0.00 | 0.00 | 40 | 1017.1 |
| 20260503230208 | 67 | 119 | 3.5 | 3.5 | 0.00 | 0.00 | 0.00 | 39 | 1017.1 |
| 20260503225705 | 67 | 66 | 1.7 | 2.6 | 0.00 | 0.00 | 0.00 | 36 | 1017.1 |
| 20260503225205 | 68 | 23 | 0.9 | 3.5 | 0.00 | 0.00 | 0.00 | 35 | 1017.2 |
| 20260503224703 | 68 | 179 | 2.6 | 2.6 | 0.00 | 0.00 | 0.00 | 34 | 1017.1 |
| 20260503224200 | 69 | 333 | 0.0 | 3.5 | 0.00 | 0.00 | 0.00 | 34 | 1017.1 |
| 20260503223658 | 69 | 100 | 3.5 | 3.5 | 0.00 | 0.00 | 0.00 | 38 | 1017.1 |
| 20260503223155 | 69 | 29 | 0.0 | 3.5 | 0.00 | 0.00 | 0.00 | 35 | 1017.0 |
| 20260503222652 | 70 | 49 | 1.7 | 3.5 | 0.00 | 0.00 | 0.00 | 35 | 1017.1 |
| 20260503222149 | 70 | 287 | 0.9 | 4.3 | 0.00 | 0.00 | 0.00 | 33 | 1017.1 |
| 20260503221648 | 71 | 91 | 1.7 | 5.2 | 0.00 | 0.00 | 0.00 | 33 | 1017.0 |
| 20260503221145 | 70 | 132 | 1.7 | 2.6 | 0.00 | 0.00 | 0.00 | 35 | 1017.1 |
| 20260503220641 | 71 | 72 | 1.7 | 4.3 | 0.00 | 0.00 | 0.00 | 36 | 1017.0 |
| 20260503220138 | 70 | 126 | 2.6 | 2.6 | 0.00 | 0.00 | 0.00 | 34 | 1017.0 |
| 20260503215635 | 70 | 82 | 2.6 | 4.3 | 0.00 | 0.00 | 0.00 | 35 | 1017.1 |
| 20260503215132 | 71 | 67 | 3.5 | 5.2 | 0.00 | 0.00 | 0.00 | 34 | 1017.1 |
| 20260503214630 | 71 | 135 | 0.0 | 3.5 | 0.00 | 0.00 | 0.00 | 34 | 1017.3 |
| 20260503214126 | 71 | 130 | 0.0 | 8.7 | 0.00 | 0.00 | 0.00 | 33 | 1017.2 |
| 20260503213626 | 71 | 117 | 3.5 | 3.5 | 0.00 | 0.00 | 0.00 | 32 | 1017.2 |
| 20260503213122 | 71 | 64 | 2.6 | 7.0 | 0.00 | 0.00 | 0.00 | 33 | 1017.2 |
| 20260503212619 | 71 | 52 | 3.5 | 3.5 | 0.00 | 0.00 | 0.00 | 34 | 1017.4 |
| 20260503212117 | 71 | 62 | 1.7 | 3.5 | 0.00 | 0.00 | 0.00 | 34 | 1017.4 |
| 20260503211614 | 71 | 165 | 0.0 | 4.3 | 0.00 | 0.00 | 0.00 | 34 | 1017.2 |
| 20260503211109 | 71 | 95 | 1.7 | 5.2 | 0.00 | 0.00 | 0.00 | 33 | 1017.6 |
| 20260503210607 | 71 | 13 | 1.7 | 3.5 | 0.00 | 0.00 | 0.00 | 34 | 1017.4 |
| 20260503205559 | 71 | 89 | 1.7 | 4.3 | 0.00 | 0.00 | 0.00 | 33 | 1017.6 |
| 20260503205055 | 72 | 76 | 2.6 | 6.1 | 0.00 | 0.00 | 0.00 | 32 | 1017.5 |
| 20260503204552 | 71 | 224 | 3.5 | 4.3 | 0.00 | 0.00 | 0.00 | 33 | 1017.7 |
| 20260503204049 | 72 | 6 | 1.7 | 4.3 | 0.00 | 0.00 | 0.00 | 36 | 1017.4 |
| 20260503203546 | 71 | 10 | 1.7 | 2.6 | 0.00 | 0.00 | 0.00 | 36 | 1017.6 |
| 20260503203043 | 70 | 63 | 3.5 | 3.5 | 0.00 | 0.00 | 0.00 | 36 | 1017.8 |
| 20260503202541 | 71 | 237 | 4.3 | 4.3 | 0.00 | 0.00 | 0.00 | 35 | 1018.0 |
| 20260503202039 | 71 | 83 | 3.5 | 5.2 | 0.00 | 0.00 | 0.00 | 35 | 1017.9 |
| 20260503201537 | 71 | 44 | 4.3 | 5.2 | 0.00 | 0.00 | 0.00 | 36 | 1018.0 |
| 20260503201034 | 70 | 133 | 3.5 | 7.0 | 0.00 | 0.00 | 0.00 | 35 | 1018.1 |
| 20260503200530 | 71 | 174 | 0.0 | 3.5 | 0.00 | 0.00 | 0.00 | 36 | 1018.2 |
| 20260503200027 | 70 | 98 | 1.7 | 4.3 | 0.00 | 0.00 | 0.00 | 37 | 1018.1 |
| 20260503195524 | 71 | 105 | 2.6 | 3.5 | 0.00 | 0.00 | 0.00 | 33 | 1018.3 |
| 20260503195021 | 71 | 190 | 1.7 | 2.6 | 0.00 | 0.00 | 0.00 | 33 | 1018.4 |
| 20260503194518 | 70 | 330 | 0.9 | 2.6 | 0.00 | 0.00 | 0.00 | 38 | 1018.4 |
| 20260503194017 | 70 | 105 | 1.7 | 3.5 | 0.00 | 0.00 | 0.00 | 36 | 1018.4 |
| 20260503193515 | 70 | 66 | 1.7 | 6.1 | 0.00 | 0.00 | 0.00 | 33 | 1018.5 |
| 20260503193010 | 71 | 64 | 1.7 | 8.7 | 0.00 | 0.00 | 0.00 | 32 | 1018.7 |
| 20260503192506 | 70 | 30 | 3.5 | 3.5 | 0.00 | 0.00 | 0.00 | 35 | 1018.6 |
| 20260503192001 | 71 | 105 | 2.6 | 2.6 | 0.00 | 0.00 | 0.00 | 38 | 1019.0 |
| 20260503191459 | 70 | 222 | 0.9 | 3.5 | 0.00 | 0.00 | 0.00 | 37 | 1018.9 |
| 20260503190955 | 70 | 235 | 2.6 | 7.8 | 0.00 | 0.00 | 0.00 | 34 | 1019.1 |
| 20260503190453 | 70 | 102 | 1.7 | 3.5 | 0.00 | 0.00 | 0.00 | 34 | 1019.1 |
| 20260503185950 | 69 | 101 | 2.6 | 3.5 | 0.00 | 0.00 | 0.00 | 37 | 1019.1 |
| 20260503185446 | 69 | 14 | 0.9 | 6.1 | 0.00 | 0.00 | 0.00 | 39 | 1019.1 |
| 20260503184946 | 70 | 85 | 1.7 | 3.5 | 0.00 | 0.00 | 0.00 | 38 | 1019.2 |
| 20260503184442 | 69 | 86 | 2.6 | 5.2 | 0.00 | 0.00 | 0.00 | 42 | 1019.2 |
| 20260503183938 | 68 | 355 | 1.7 | 3.5 | 0.00 | 0.00 | 0.00 | 42 | 1019.2 |
| 20260503183435 | 69 | 136 | 1.7 | 6.1 | 0.00 | 0.00 | 0.00 | 38 | 1019.2 |
| 20260503182932 | 69 | 101 | 5.2 | 5.2 | 0.00 | 0.00 | 0.00 | 38 | 1019.4 |
| 20260503182431 | 68 | 76 | 0.0 | 3.5 | 0.00 | 0.00 | 0.00 | 41 | 1019.5 |
| 20260503181928 | 68 | 304 | 0.0 | 3.5 | 0.00 | 0.00 | 0.00 | 38 | 1019.5 |
| 20260503181425 | 68 | 92 | 2.6 | 7.0 | 0.00 | 0.00 | 0.00 | 38 | 1019.4 |
| 20260503180921 | 68 | 170 | 3.5 | 5.2 | 0.00 | 0.00 | 0.00 | 40 | 1019.4 |
| 20260503180420 | 69 | 190 | 3.5 | 6.1 | 0.00 | 0.00 | 0.00 | 38 | 1019.6 |
| 20260503175916 | 68 | 70 | 1.7 | 4.3 | 0.00 | 0.00 | 0.00 | 41 | 1019.7 |
| 20260503175414 | 67 | 282 | 0.0 | 3.5 | 0.00 | 0.00 | 0.00 | 40 | 1019.6 |
| 20260503174909 | 66 | 141 | 2.6 | 3.5 | 0.00 | 0.00 | 0.00 | 38 | 1019.6 |
| 20260503174408 | 67 | 55 | 0.9 | 6.1 | 0.00 | 0.00 | 0.00 | 42 | 1019.8 |
| 20260503173902 | 67 | 102 | 2.6 | 4.3 | 0.00 | 0.00 | 0.00 | 39 | 1019.8 |
| 20260503173359 | 66 | 290 | 0.0 | 2.6 | 0.00 | 0.00 | 0.00 | 38 | 1019.8 |
| 20260503172855 | 66 | 175 | 1.7 | 7.8 | 0.00 | 0.00 | 0.00 | 36 | 1019.9 |
| 20260503172353 | 67 | 181 | 3.5 | 5.2 | 0.00 | 0.00 | 0.00 | 37 | 1020.0 |
| 20260503171849 | 67 | 99 | 2.6 | 5.2 | 0.00 | 0.00 | 0.00 | 39 | 1020.0 |
| 20260503171346 | 66 | 45 | 0.0 | 1.7 | 0.00 | 0.00 | 0.00 | 40 | 1020.0 |
| 20260503170844 | 66 | 174 | 1.7 | 3.5 | 0.00 | 0.00 | 0.00 | 39 | 1020.0 |
| 20260503170340 | 66 | 33 | 1.7 | 4.3 | 0.00 | 0.00 | 0.00 | 44 | 1020.3 |